Terminal Aerodrome Forecast
Issued by NWS Charleston, WV

Current Version | Previous Version | Graphics & Text | Print | Product List | Glossary On
Versions: 1 2 3 4 5 6 7 8 9 10 11 12 13 14 15 16 17 18 19 20 21 22 23 24 25 26 27 28 29 30 31 32
000
FTUS41 KRLX 251100
TAFPKB
TAF
KPKB 251129Z 2512/2612 11006KT P6SM VCSH BKN080 WS020/19035KT
     FM251400 17009G15KT P6SM VCSH SCT035 BKN060
     FM251600 21010G18KT P6SM BKN035
     FM252300 22005KT P6SM BKN045
     FM260200 VRB03KT P6SM BKN050=

USA.gov is the U.S. government's official web portal to all federal, state and local government web resources and services.